CCA1618 ZYTL-ZBAA
Flight info
| Callsign | CCA1618 |
|---|---|
| Flight time | 1h 3m |
| Altitude | 36100 |
| Route | ORA19D ORAVA W201 UKDUM W49 OSUBA OSUBA7X |
| Aircraft | A20N/M-SDE2E3FGHIRWXY/LB1 |
Departure
| Time | 2026-05-07 16:12 |
|---|---|
| Airport | Dalian Zhoushuizi International Airport (ZYTL) |
Arrival
| Time | 2026-05-07 17:16 |
|---|---|
| Airport | Beijing Capital International Airport (ZBAA) |
| Time | Latitude | Longitude | Altitude | Speed | Heading |
|---|---|---|---|---|---|
| 2026-05-07 16:12 | 38.95925 | 121.27412 | 8642 ft | 268 kts | 254° |
| 2026-05-07 16:12 | 38.95406 | 121.25177 | 9515 ft | 268 kts | 255° |
| 2026-05-07 16:13 | 38.94875 | 121.22876 | 10394 ft | 269 kts | 255° |
| 2026-05-07 16:13 | 38.94345 | 121.20564 | 10921 ft | 282 kts | 255° |
| 2026-05-07 16:13 | 38.93775 | 121.18071 | 11307 ft | 300 kts | 255° |
| 2026-05-07 16:13 | 38.93170 | 121.15427 | 11658 ft | 318 kts | 255° |
| 2026-05-07 16:14 | 38.92526 | 121.12614 | 11978 ft | 336 kts | 255° |
| 2026-05-07 16:14 | 38.91860 | 121.09713 | 12436 ft | 348 kts | 255° |
| 2026-05-07 16:14 | 38.91173 | 121.06730 | 13142 ft | 352 kts | 255° |
| 2026-05-07 16:14 | 38.90484 | 121.03736 | 13885 ft | 354 kts | 255° |
| 2026-05-07 16:15 | 38.89782 | 121.00683 | 14593 ft | 357 kts | 254° |
| 2026-05-07 16:15 | 38.89079 | 120.97632 | 15252 ft | 360 kts | 255° |
| 2026-05-07 16:15 | 38.88369 | 120.94542 | 15901 ft | 364 kts | 255° |
| 2026-05-07 16:15 | 38.87655 | 120.91447 | 16536 ft | 367 kts | 254° |
| 2026-05-07 16:16 | 38.86924 | 120.88284 | 17155 ft | 371 kts | 254° |
| 2026-05-07 16:16 | 38.86187 | 120.85101 | 17774 ft | 374 kts | 254° |
| 2026-05-07 16:16 | 38.85451 | 120.81932 | 18381 ft | 377 kts | 254° |
| 2026-05-07 16:16 | 38.84694 | 120.78682 | 18988 ft | 380 kts | 254° |
| 2026-05-07 16:17 | 38.83944 | 120.75465 | 19572 ft | 382 kts | 254° |
| 2026-05-07 16:17 | 38.83184 | 120.72207 | 20149 ft | 385 kts | 254° |
| 2026-05-07 16:17 | 38.82413 | 120.68909 | 20737 ft | 387 kts | 254° |
| 2026-05-07 16:17 | 38.81646 | 120.65625 | 21281 ft | 389 kts | 254° |
| 2026-05-07 16:18 | 38.80862 | 120.62273 | 21817 ft | 392 kts | 255° |
| 2026-05-07 16:18 | 38.80088 | 120.58974 | 22347 ft | 394 kts | 255° |
| 2026-05-07 16:18 | 38.79293 | 120.55591 | 22865 ft | 396 kts | 255° |
| 2026-05-07 16:18 | 38.78500 | 120.52220 | 23369 ft | 398 kts | 255° |
| 2026-05-07 16:19 | 38.77704 | 120.48832 | 23849 ft | 400 kts | 255° |
| 2026-05-07 16:19 | 38.76904 | 120.45438 | 24292 ft | 403 kts | 254° |
| 2026-05-07 16:19 | 38.76092 | 120.42001 | 24744 ft | 405 kts | 254° |
| 2026-05-07 16:19 | 38.75276 | 120.38554 | 25165 ft | 407 kts | 254° |
| 2026-05-07 16:20 | 38.74453 | 120.35080 | 25581 ft | 409 kts | 254° |
| 2026-05-07 16:20 | 38.73856 | 120.31522 | 25944 ft | 411 kts | 265° |
| 2026-05-07 16:20 | 38.74031 | 120.27876 | 26323 ft | 415 kts | 279° |
| 2026-05-07 16:20 | 38.74966 | 120.24365 | 26695 ft | 421 kts | 293° |
| 2026-05-07 16:21 | 38.76591 | 120.21274 | 27014 ft | 431 kts | 307° |
| 2026-05-07 16:21 | 38.78908 | 120.18745 | 27307 ft | 444 kts | 322° |
| 2026-05-07 16:21 | 38.81768 | 120.17088 | 27594 ft | 458 kts | 338° |
| 2026-05-07 16:21 | 38.84855 | 120.16042 | 27950 ft | 461 kts | 340° |
| 2026-05-07 16:22 | 38.87951 | 120.15041 | 28348 ft | 460 kts | 340° |
| 2026-05-07 16:22 | 38.91053 | 120.14043 | 28755 ft | 459 kts | 340° |
| 2026-05-07 16:22 | 38.94148 | 120.13043 | 29151 ft | 459 kts | 339° |
| 2026-05-07 16:22 | 38.97210 | 120.12049 | 29511 ft | 459 kts | 339° |
| 2026-05-07 16:23 | 39.00303 | 120.11040 | 29891 ft | 458 kts | 339° |
| 2026-05-07 16:23 | 39.03400 | 120.10026 | 30280 ft | 457 kts | 339° |
| 2026-05-07 16:23 | 39.06479 | 120.09017 | 30671 ft | 456 kts | 339° |
| 2026-05-07 16:23 | 39.09545 | 120.08012 | 31054 ft | 455 kts | 339° |
| 2026-05-07 16:24 | 39.12578 | 120.07014 | 31412 ft | 454 kts | 339° |
| 2026-05-07 16:24 | 39.15645 | 120.06006 | 31767 ft | 453 kts | 339° |
| 2026-05-07 16:24 | 39.18702 | 120.04999 | 32114 ft | 453 kts | 338° |
| 2026-05-07 16:24 | 39.21755 | 120.03991 | 32432 ft | 452 kts | 338° |
| 2026-05-07 16:25 | 39.24793 | 120.02987 | 32750 ft | 451 kts | 338° |
| 2026-05-07 16:25 | 39.27818 | 120.01986 | 33057 ft | 451 kts | 338° |
| 2026-05-07 16:25 | 39.30847 | 120.00985 | 33348 ft | 450 kts | 338° |
| 2026-05-07 16:25 | 39.33882 | 119.99984 | 33637 ft | 449 kts | 338° |
| 2026-05-07 16:26 | 39.36907 | 119.99007 | 33929 ft | 449 kts | 338° |
| 2026-05-07 16:26 | 39.39896 | 119.98048 | 34202 ft | 448 kts | 339° |
| 2026-05-07 16:26 | 39.42920 | 119.97076 | 34418 ft | 449 kts | 339° |
| 2026-05-07 16:26 | 39.44967 | 119.96416 | 34556 ft | 449 kts | 339° |
| 2026-05-07 16:27 | 39.48988 | 119.95116 | 34807 ft | 450 kts | 339° |
| 2026-05-07 16:27 | 39.52024 | 119.94133 | 34985 ft | 451 kts | 339° |
| 2026-05-07 16:27 | 39.55074 | 119.93145 | 35139 ft | 452 kts | 339° |
| 2026-05-07 16:27 | 39.58134 | 119.92151 | 35287 ft | 453 kts | 339° |
| 2026-05-07 16:28 | 39.61195 | 119.91156 | 35447 ft | 454 kts | 339° |
| 2026-05-07 16:28 | 39.64218 | 119.90173 | 35610 ft | 454 kts | 339° |
| 2026-05-07 16:28 | 39.67294 | 119.89173 | 35753 ft | 455 kts | 339° |
| 2026-05-07 16:28 | 39.70361 | 119.88173 | 35866 ft | 456 kts | 339° |
| 2026-05-07 16:29 | 39.73433 | 119.87171 | 35987 ft | 457 kts | 339° |
| 2026-05-07 16:29 | 39.79603 | 119.85154 | 36083 ft | 457 kts | 339° |
| 2026-05-07 16:30 | 39.85782 | 119.83130 | 36086 ft | 458 kts | 339° |
| 2026-05-07 16:30 | 39.91893 | 119.80952 | 36082 ft | 451 kts | 332° |
| 2026-05-07 16:31 | 39.97295 | 119.77200 | 36087 ft | 436 kts | 317° |
| 2026-05-07 16:31 | 40.01638 | 119.71858 | 36088 ft | 424 kts | 303° |
| 2026-05-07 16:32 | 40.04712 | 119.65466 | 36094 ft | 415 kts | 291° |
| 2026-05-07 16:32 | 40.07208 | 119.58732 | 36095 ft | 414 kts | 291° |
| 2026-05-07 16:33 | 40.09685 | 119.51980 | 36098 ft | 414 kts | 291° |
| 2026-05-07 16:33 | 40.12174 | 119.45203 | 36103 ft | 415 kts | 291° |
| 2026-05-07 16:34 | 40.14664 | 119.38417 | 36108 ft | 415 kts | 291° |
| 2026-05-07 16:34 | 40.17149 | 119.31632 | 36115 ft | 415 kts | 290° |
| 2026-05-07 16:35 | 40.19994 | 119.25075 | 36121 ft | 421 kts | 300° |
| 2026-05-07 16:35 | 40.23888 | 119.19260 | 36126 ft | 431 kts | 310° |
| 2026-05-07 16:36 | 40.28721 | 119.14518 | 36124 ft | 442 kts | 322° |
| 2026-05-07 16:36 | 40.34294 | 119.10973 | 36122 ft | 448 kts | 329° |
| 2026-05-07 16:37 | 40.39979 | 119.07754 | 36122 ft | 448 kts | 329° |
| 2026-05-07 16:37 | 40.45705 | 119.04509 | 36124 ft | 448 kts | 329° |
| 2026-05-07 16:38 | 40.51413 | 119.01255 | 36129 ft | 448 kts | 329° |
| 2026-05-07 16:38 | 40.57100 | 118.98001 | 36130 ft | 448 kts | 329° |
| 2026-05-07 16:39 | 40.62820 | 118.94720 | 36132 ft | 448 kts | 329° |
| 2026-05-07 16:39 | 40.68528 | 118.91441 | 36134 ft | 449 kts | 329° |
| 2026-05-07 16:40 | 40.74224 | 118.88161 | 36136 ft | 448 kts | 329° |
| 2026-05-07 16:40 | 40.79923 | 118.84872 | 36138 ft | 448 kts | 329° |
| 2026-05-07 16:41 | 40.85627 | 118.81574 | 36143 ft | 449 kts | 329° |
| 2026-05-07 16:41 | 40.91334 | 118.78270 | 36146 ft | 448 kts | 329° |
| 2026-05-07 16:42 | 40.97034 | 118.74963 | 36150 ft | 448 kts | 329° |
| 2026-05-07 16:42 | 41.02708 | 118.71663 | 36151 ft | 449 kts | 329° |
| 2026-05-07 16:43 | 41.08427 | 118.68331 | 36152 ft | 448 kts | 329° |
| 2026-05-07 16:43 | 41.14127 | 118.65002 | 36153 ft | 448 kts | 329° |
| 2026-05-07 16:44 | 41.19823 | 118.61666 | 36158 ft | 449 kts | 329° |
| 2026-05-07 16:44 | 41.25493 | 118.58359 | 36164 ft | 449 kts | 329° |
| 2026-05-07 16:45 | 41.31226 | 118.55092 | 36171 ft | 449 kts | 330° |
| 2026-05-07 16:45 | 41.36966 | 118.51812 | 36178 ft | 449 kts | 329° |
| 2026-05-07 16:46 | 41.42370 | 118.47977 | 36184 ft | 436 kts | 316° |
| 2026-05-07 16:46 | 41.46500 | 118.42290 | 36189 ft | 421 kts | 299° |
| 2026-05-07 16:47 | 41.49034 | 118.35451 | 36194 ft | 410 kts | 283° |
| 2026-05-07 16:47 | 41.49935 | 118.28055 | 36201 ft | 403 kts | 269° |
| 2026-05-07 16:48 | 41.50044 | 118.20612 | 36200 ft | 403 kts | 269° |
| 2026-05-07 16:48 | 41.50124 | 118.13135 | 36190 ft | 403 kts | 268° |
| 2026-05-07 16:49 | 41.50196 | 118.05698 | 36176 ft | 403 kts | 268° |
| 2026-05-07 16:49 | 41.50266 | 117.98278 | 36161 ft | 403 kts | 268° |
| 2026-05-07 16:50 | 41.50330 | 117.90818 | 35968 ft | 404 kts | 268° |
| 2026-05-07 16:50 | 41.50360 | 117.87058 | 35707 ft | 401 kts | 268° |
| 2026-05-07 16:50 | 41.50389 | 117.83366 | 35450 ft | 398 kts | 268° |
| 2026-05-07 16:50 | 41.50416 | 117.79740 | 35197 ft | 396 kts | 269° |
| 2026-05-07 16:51 | 41.50442 | 117.76051 | 34939 ft | 394 kts | 268° |
| 2026-05-07 16:51 | 41.50467 | 117.72414 | 34683 ft | 394 kts | 268° |
| 2026-05-07 16:51 | 41.50491 | 117.68766 | 34427 ft | 394 kts | 268° |
| 2026-05-07 16:51 | 41.50513 | 117.65134 | 34171 ft | 394 kts | 269° |
| 2026-05-07 16:52 | 41.50533 | 117.61505 | 33916 ft | 395 kts | 269° |
| 2026-05-07 16:52 | 41.50554 | 117.57847 | 33661 ft | 396 kts | 269° |
| 2026-05-07 16:52 | 41.50571 | 117.54204 | 33405 ft | 396 kts | 269° |
| 2026-05-07 16:52 | 41.50590 | 117.50536 | 33046 ft | 398 kts | 269° |
| 2026-05-07 16:53 | 41.50605 | 117.46854 | 32548 ft | 399 kts | 269° |
| 2026-05-07 16:53 | 41.50620 | 117.43138 | 31941 ft | 401 kts | 269° |
| 2026-05-07 16:53 | 41.50635 | 117.39412 | 31272 ft | 402 kts | 269° |
| 2026-05-07 16:53 | 41.50439 | 117.35743 | 30497 ft | 402 kts | 258° |
| 2026-05-07 16:54 | 41.49585 | 117.32209 | 29697 ft | 404 kts | 246° |
| 2026-05-07 16:54 | 41.48142 | 117.29015 | 28867 ft | 410 kts | 234° |
| 2026-05-07 16:54 | 41.46127 | 117.26263 | 27977 ft | 419 kts | 222° |
| 2026-05-07 16:54 | 41.43679 | 117.24212 | 27133 ft | 428 kts | 209° |
| 2026-05-07 16:55 | 41.40854 | 117.22948 | 26547 ft | 431 kts | 198° |
| 2026-05-07 16:55 | 41.37951 | 117.22073 | 25973 ft | 429 kts | 198° |
| 2026-05-07 16:55 | 41.35018 | 117.21215 | 25386 ft | 426 kts | 197° |
| 2026-05-07 16:55 | 41.32148 | 117.20384 | 24806 ft | 423 kts | 197° |
| 2026-05-07 16:56 | 41.29289 | 117.19561 | 24210 ft | 421 kts | 197° |
| 2026-05-07 16:56 | 41.26434 | 117.18740 | 23628 ft | 418 kts | 197° |
| 2026-05-07 16:56 | 41.20811 | 117.17124 | 22492 ft | 413 kts | 197° |
| 2026-05-07 16:57 | 41.18018 | 117.16323 | 21937 ft | 411 kts | 197° |
| 2026-05-07 16:57 | 41.15250 | 117.15531 | 21385 ft | 408 kts | 197° |
| 2026-05-07 16:57 | 41.12465 | 117.14734 | 20829 ft | 405 kts | 197° |
| 2026-05-07 16:57 | 41.09727 | 117.13951 | 20280 ft | 402 kts | 196° |
| 2026-05-07 16:58 | 41.07016 | 117.13177 | 19733 ft | 400 kts | 196° |
| 2026-05-07 16:58 | 41.04306 | 117.12404 | 19183 ft | 397 kts | 196° |
| 2026-05-07 16:58 | 41.01622 | 117.11639 | 18636 ft | 394 kts | 196° |
| 2026-05-07 16:58 | 40.98946 | 117.10877 | 18090 ft | 392 kts | 196° |
| 2026-05-07 16:59 | 40.96310 | 117.10127 | 17544 ft | 389 kts | 196° |
| 2026-05-07 16:59 | 40.93656 | 117.09374 | 16996 ft | 387 kts | 196° |
| 2026-05-07 16:59 | 40.91036 | 117.08631 | 16450 ft | 385 kts | 196° |
| 2026-05-07 16:59 | 40.88428 | 117.07892 | 15905 ft | 382 kts | 196° |
| 2026-05-07 17:00 | 40.85835 | 117.07158 | 15363 ft | 380 kts | 196° |
| 2026-05-07 17:00 | 40.83287 | 117.06437 | 14826 ft | 378 kts | 196° |
| 2026-05-07 17:00 | 40.80731 | 117.05713 | 14290 ft | 376 kts | 196° |
| 2026-05-07 17:00 | 40.78159 | 117.04986 | 13750 ft | 374 kts | 196° |
| 2026-05-07 17:01 | 40.75663 | 117.04227 | 13214 ft | 370 kts | 201° |
| 2026-05-07 17:01 | 40.73318 | 117.02920 | 12688 ft | 362 kts | 213° |
| 2026-05-07 17:01 | 40.71301 | 117.01057 | 12585 ft | 350 kts | 223° |
| 2026-05-07 17:01 | 40.69475 | 116.98997 | 12178 ft | 347 kts | 225° |
| 2026-05-07 17:02 | 40.67652 | 116.96883 | 11486 ft | 349 kts | 225° |
| 2026-05-07 17:02 | 40.65838 | 116.94804 | 10922 ft | 347 kts | 224° |
| 2026-05-07 17:02 | 40.64021 | 116.92738 | 10412 ft | 343 kts | 224° |
| 2026-05-07 17:02 | 40.62262 | 116.90751 | 10136 ft | 324 kts | 224° |
| 2026-05-07 17:03 | 40.60607 | 116.88886 | 9724 ft | 304 kts | 224° |
| 2026-05-07 17:03 | 40.59048 | 116.87129 | 9343 ft | 286 kts | 224° |
| 2026-05-07 17:03 | 40.57599 | 116.85494 | 8950 ft | 272 kts | 224° |
| 2026-05-07 17:03 | 40.56169 | 116.83877 | 8310 ft | 268 kts | 224° |
| 2026-05-07 17:04 | 40.54781 | 116.82304 | 7602 ft | 268 kts | 224° |
| 2026-05-07 17:04 | 40.53376 | 116.80716 | 6900 ft | 267 kts | 223° |
| 2026-05-07 17:04 | 40.51969 | 116.79129 | 6287 ft | 266 kts | 223° |
| 2026-05-07 17:04 | 40.50427 | 116.77808 | 5940 ft | 269 kts | 199° |
| 2026-05-07 17:05 | 40.48555 | 116.77432 | 5916 ft | 274 kts | 187° |
| 2026-05-07 17:05 | 40.46659 | 116.77271 | 5907 ft | 275 kts | 186° |
| 2026-05-07 17:05 | 40.44743 | 116.77100 | 5902 ft | 275 kts | 187° |
| 2026-05-07 17:05 | 40.42833 | 116.76894 | 5898 ft | 274 kts | 187° |
| 2026-05-07 17:06 | 40.40931 | 116.76661 | 5894 ft | 274 kts | 188° |
| 2026-05-07 17:06 | 40.39055 | 116.76413 | 5871 ft | 272 kts | 188° |
| 2026-05-07 17:06 | 40.37161 | 116.76154 | 5566 ft | 270 kts | 188° |
| 2026-05-07 17:06 | 40.35312 | 116.75893 | 5156 ft | 271 kts | 188° |
| 2026-05-07 17:07 | 40.33424 | 116.75624 | 4895 ft | 268 kts | 188° |
| 2026-05-07 17:07 | 40.31579 | 116.75362 | 4881 ft | 271 kts | 188° |
| 2026-05-07 17:07 | 40.29699 | 116.75093 | 4876 ft | 271 kts | 188° |
| 2026-05-07 17:07 | 40.27823 | 116.74825 | 4871 ft | 271 kts | 188° |
| 2026-05-07 17:08 | 40.25938 | 116.74557 | 4867 ft | 271 kts | 188° |
| 2026-05-07 17:08 | 40.24061 | 116.74290 | 4866 ft | 271 kts | 188° |
| 2026-05-07 17:08 | 40.22202 | 116.74026 | 4858 ft | 259 kts | 188° |
| 2026-05-07 17:08 | 40.20479 | 116.73783 | 4853 ft | 243 kts | 188° |
| 2026-05-07 17:09 | 40.18834 | 116.73550 | 4711 ft | 235 kts | 188° |
| 2026-05-07 17:09 | 40.17203 | 116.73315 | 4469 ft | 232 kts | 188° |
| 2026-05-07 17:09 | 40.15588 | 116.73083 | 4177 ft | 232 kts | 188° |
| 2026-05-07 17:09 | 40.14002 | 116.72856 | 3891 ft | 231 kts | 188° |
| 2026-05-07 17:10 | 40.12387 | 116.72626 | 3601 ft | 231 kts | 188° |
| 2026-05-07 17:10 | 40.10810 | 116.72328 | 3365 ft | 227 kts | 191° |
| 2026-05-07 17:10 | 40.09269 | 116.71992 | 3221 ft | 220 kts | 191° |
| 2026-05-07 17:10 | 40.07791 | 116.71667 | 3075 ft | 212 kts | 191° |
| 2026-05-07 17:11 | 40.06342 | 116.71349 | 2927 ft | 205 kts | 191° |
| 2026-05-07 17:11 | 40.04962 | 116.71047 | 2781 ft | 198 kts | 191° |
| 2026-05-07 17:11 | 40.03641 | 116.70758 | 2730 ft | 183 kts | 191° |
| 2026-05-07 17:11 | 40.02388 | 116.70485 | 2383 ft | 186 kts | 190° |
| 2026-05-07 17:12 | 40.01107 | 116.70203 | 2021 ft | 186 kts | 190° |
| 2026-05-07 17:12 | 39.99881 | 116.69927 | 1865 ft | 171 kts | 193° |
| 2026-05-07 17:12 | 39.98890 | 116.69182 | 1630 ft | 167 kts | 233° |
| 2026-05-07 17:12 | 39.98365 | 116.67841 | 1386 ft | 169 kts | 249° |
| 2026-05-07 17:13 | 39.97947 | 116.66399 | 1374 ft | 170 kts | 249° |
| 2026-05-07 17:13 | 39.97527 | 116.64960 | 1368 ft | 170 kts | 254° |
| 2026-05-07 17:13 | 39.97570 | 116.63480 | 1344 ft | 168 kts | 295° |
| 2026-05-07 17:13 | 39.98156 | 116.62224 | 1377 ft | 155 kts | 301° |
| 2026-05-07 17:14 | 39.98766 | 116.61151 | 1329 ft | 142 kts | 327° |
| 2026-05-07 17:14 | 39.99686 | 116.60774 | 1252 ft | 141 kts | 354° |
| 2026-05-07 17:14 | 40.00670 | 116.60719 | 1063 ft | 140 kts | 358° |
| 2026-05-07 17:14 | 40.01639 | 116.60638 | 878 ft | 139 kts | 353° |
| 2026-05-07 17:15 | 40.02596 | 116.60491 | 700 ft | 139 kts | 352° |
| 2026-05-07 17:15 | 40.03556 | 116.60332 | 521 ft | 138 kts | 352° |
| 2026-05-07 17:15 | 40.04510 | 116.60184 | 348 ft | 138 kts | 353° |
| 2026-05-07 17:15 | 40.05460 | 116.60037 | 188 ft | 136 kts | 352° |
| 2026-05-07 17:16 | 40.06368 | 116.59883 | 123 ft | 119 kts | 352° |
| 2026-05-07 17:16 | 40.06884 | 116.59803 | 122 ft | 30 kts | 354° |
| 2026-05-07 17:16 | 40.07100 | 116.59836 | 122 ft | 31 kts | 18° |
| 2026-05-07 17:16 | 40.07211 | 116.59959 | 122 ft | 19 kts | 111° |
| 2026-05-07 17:17 | 40.07089 | 116.60007 | 122 ft | 18 kts | 172° |
| 2026-05-07 17:17 | 40.06961 | 116.60027 | 122 ft | 18 kts | 174° |
| 2026-05-07 17:17 | 40.06835 | 116.60045 | 122 ft | 18 kts | 174° |
| 2026-05-07 17:17 | 40.06709 | 116.60065 | 122 ft | 18 kts | 173° |
| 2026-05-07 17:18 | 40.06583 | 116.60085 | 122 ft | 18 kts | 174° |
| 2026-05-07 17:18 | 40.06458 | 116.60104 | 122 ft | 18 kts | 174° |
| 2026-05-07 17:18 | 40.06334 | 116.60122 | 122 ft | 18 kts | 174° |
| 2026-05-07 17:18 | 40.06210 | 116.60143 | 122 ft | 17 kts | 173° |
| 2026-05-07 17:19 | 40.06085 | 116.60162 | 122 ft | 17 kts | 173° |
| 2026-05-07 17:19 | 40.05962 | 116.60181 | 122 ft | 17 kts | 174° |
| 2026-05-07 17:19 | 40.05837 | 116.60201 | 122 ft | 17 kts | 173° |
| 2026-05-07 17:19 | 40.05730 | 116.60255 | 122 ft | 17 kts | 112° |
| 2026-05-07 17:20 | 40.05738 | 116.60411 | 122 ft | 17 kts | 83° |
| 2026-05-07 17:20 | 40.05748 | 116.60568 | 122 ft | 17 kts | 107° |
| 2026-05-07 17:20 | 40.05654 | 116.60611 | 122 ft | 13 kts | 176° |
| 2026-05-07 17:20 | 40.05564 | 116.60620 | 122 ft | 12 kts | 136° |
| 2026-05-07 17:21 | 40.05541 | 116.60694 | 122 ft | 0 kts | 107° |